PWSweather.com
Personal Weather Stations
Station Observations
TENMILE2
Watts Bar Lake, Ten Mile, TN 37880

Watts Bar LakeTen Mile, TN 37880

Lat: 35.686, Lon: -84.7068

Elevation: 767

Station Type: Davis VP2

http://www.wattsbarweather.net

High Low Average
Temperature 58.5°F14.7°C 54.5°F12.5°C 56.6°F13.7°C
Dew Point 57.3°F14.1°C 52.8°F11.6°C 55.2°F12.9°C
Winds 9.8 mph 15.8 kmh Calm Calm 3.0 mph SW4.8 kmh SW
Wind Gusts 22.5 mph36.2 kmh -- 8.0 mph12.9 kmh
Humidity 97% 93% 95%
Pressure 29.88 in1011.9 mb 29.77 in1008.1 mb -
Precipitation 3.79 in96.3 mm - -
Hour Temp Dew Point Humidity Winds Wind Gusts Pressure Precip Precip Rate Daily Precip Total
12:01 AM 58.6°F14.8°C 57.4°F14.1°C 96% Calm Calm -- 29.88 in1011.9 mb 0.00 in0.0 mm 0.00 in0.0 mm 0.00 in0.0 mm
12:06 AM 58.6°F14.8°C 57.4°F14.1°C 96% Calm Calm -- 29.88 in1011.9 mb 0.00 in0.0 mm 0.00 in0.0 mm 0.00 in0.0 mm
12:11 AM 58.6°F14.8°C 57.4°F14.1°C 96% Calm Calm -- 29.87 in1011.5 mb 0.00 in0.0 mm 0.00 in0.0 mm 0.00 in0.0 mm
12:16 AM 58.6°F14.8°C 57.4°F14.1°C 96% Calm Calm -- 29.87 in1011.5 mb 0.00 in0.0 mm 0.00 in0.0 mm 0.00 in0.0 mm
12:21 AM 58.5°F14.7°C 57.3°F14.1°C 96% 1.3 mph SE2.1 kmh SE 1.3 mph2.1 kmh 29.87 in1011.5 mb 0.00 in0.0 mm 0.00 in0.0 mm 0.00 in0.0 mm
12:26 AM 58.4°F14.7°C 57.2°F14.0°C 96% 1.3 mph SE2.1 kmh SE 1.3 mph2.1 kmh 29.87 in1011.5 mb 0.00 in0.0 mm 0.00 in0.0 mm 0.00 in0.0 mm
12:31 AM 58.3°F14.6°C 57.1°F13.9°C 96% 1.3 mph N2.1 kmh N 2.5 mph4.0 kmh 29.87 in1011.5 mb 0.00 in0.0 mm 0.00 in0.0 mm 0.00 in0.0 mm
12:36 AM 58.2°F14.6°C 57.1°F13.9°C 96% 1.3 mph N2.1 kmh N 2.5 mph4.0 kmh 29.87 in1011.5 mb 0.00 in0.0 mm 0.00 in0.0 mm 0.00 in0.0 mm
12:41 AM 58.1°F14.5°C 57.0°F13.9°C 96% 1.3 mph N2.1 kmh N 2.0 mph3.2 kmh 29.87 in1011.5 mb 0.00 in0.0 mm 0.00 in0.0 mm 0.00 in0.0 mm
12:46 AM 58.1°F14.5°C 57.0°F13.9°C 96% 1.3 mph N2.1 kmh N 2.0 mph3.2 kmh 29.87 in1011.5 mb 0.00 in0.0 mm 0.00 in0.0 mm 0.00 in0.0 mm
12:51 AM 58.1°F14.5°C 57.0°F13.9°C 96% 1.3 mph NE2.1 kmh NE 1.3 mph2.1 kmh 29.86 in1011.2 mb 0.00 in0.0 mm 0.00 in0.0 mm 0.00 in0.0 mm
12:56 AM 58.2°F14.6°C 57.1°F13.9°C 96% 1.3 mph W2.1 kmh W 1.3 mph2.1 kmh 29.87 in1011.5 mb 0.00 in0.0 mm 0.00 in0.0 mm 0.00 in0.0 mm
01:01 AM 58.2°F14.6°C 57.0°F13.9°C 96% Calm Calm 1.3 mph2.1 kmh 29.87 in1011.5 mb 0.00 in0.0 mm 0.00 in0.0 mm 0.00 in0.0 mm
01:06 AM 58.2°F14.6°C 57.0°F13.9°C 96% Calm Calm 1.0 mph1.6 kmh 29.87 in1011.5 mb 0.00 in0.0 mm 0.00 in0.0 mm 0.00 in0.0 mm
01:11 AM 58.3°F14.6°C 57.1°F13.9°C 96% Calm Calm 1.0 mph1.6 kmh 29.88 in1011.9 mb 0.00 in0.0 mm 0.00 in0.0 mm 0.00 in0.0 mm
01:17 AM 58.3°F14.6°C 57.1°F13.9°C 96% Calm Calm -- 29.88 in1011.9 mb 0.00 in0.0 mm 0.00 in0.0 mm 0.00 in0.0 mm
01:22 AM 58.3°F14.6°C 57.1°F13.9°C 96% Calm Calm -- 29.87 in1011.5 mb 0.00 in0.0 mm 0.00 in0.0 mm 0.00 in0.0 mm
01:27 AM 58.4°F14.7°C 57.2°F14.0°C 96% 1.5 mph N2.4 kmh N 3.8 mph6.1 kmh 29.87 in1011.5 mb 0.01 in0.3 mm 0.12 in3.0 mm 0.01 in0.3 mm
01:32 AM 58.3°F14.6°C 57.1°F13.9°C 96% 1.3 mph NW2.1 kmh NW 3.8 mph6.1 kmh 29.87 in1011.5 mb 0.01 in0.3 mm 0.00 in0.0 mm 0.01 in0.3 mm
01:37 AM 58.3°F14.6°C 57.1°F13.9°C 96% 1.4 mph NNE2.3 kmh NNE 3.8 mph6.1 kmh 29.87 in1011.5 mb 0.01 in0.3 mm 0.00 in0.0 mm 0.01 in0.3 mm
01:42 AM 58.3°F14.6°C 57.1°F13.9°C 96% 1.3 mph NNE2.1 kmh NNE 3.8 mph6.1 kmh 29.86 in1011.2 mb 0.01 in0.3 mm 0.00 in0.0 mm 0.01 in0.3 mm
01:47 AM 58.3°F14.6°C 57.1°F13.9°C 96% Calm Calm 3.0 mph4.8 kmh 29.87 in1011.5 mb 0.01 in0.3 mm 0.00 in0.0 mm 0.01 in0.3 mm
01:52 AM 58.3°F14.6°C 57.1°F13.9°C 96% 1.3 mph NNE2.1 kmh NNE 3.0 mph4.8 kmh 29.86 in1011.2 mb 0.01 in0.3 mm 0.00 in0.0 mm 0.01 in0.3 mm
01:57 AM 58.3°F14.6°C 57.1°F13.9°C 96% 1.3 mph SSE2.1 kmh SSE 1.3 mph2.1 kmh 29.87 in1011.5 mb 0.01 in0.3 mm 0.00 in0.0 mm 0.01 in0.3 mm
02:02 AM 58.3°F14.6°C 57.2°F14.0°C 96% Calm Calm 1.3 mph2.1 kmh 29.86 in1011.2 mb 0.01 in0.3 mm 0.00 in0.0 mm 0.01 in0.3 mm
02:07 AM 58.4°F14.7°C 57.3°F14.1°C 96% Calm Calm 1.0 mph1.6 kmh 29.86 in1011.2 mb 0.01 in0.3 mm 0.00 in0.0 mm 0.01 in0.3 mm
02:12 AM 58.4°F14.7°C 57.3°F14.1°C 96% Calm Calm 1.0 mph1.6 kmh 29.85 in1010.8 mb 0.01 in0.3 mm 0.00 in0.0 mm 0.01 in0.3 mm
02:17 AM 58.4°F14.7°C 57.2°F14.0°C 96% Calm Calm 1.3 mph2.1 kmh 29.85 in1010.8 mb 0.01 in0.3 mm 0.00 in0.0 mm 0.01 in0.3 mm
02:22 AM 58.4°F14.7°C 57.2°F14.0°C 96% Calm Calm 1.3 mph2.1 kmh 29.85 in1010.8 mb 0.01 in0.3 mm 0.00 in0.0 mm 0.01 in0.3 mm
02:27 AM 58.5°F14.7°C 57.3°F14.1°C 96% Calm Calm 1.0 mph1.6 kmh 29.85 in1010.8 mb 0.00 in0.0 mm 0.00 in0.0 mm 0.01 in0.3 mm
02:32 AM 58.4°F14.7°C 57.2°F14.0°C 96% 1.3 mph ENE2.1 kmh ENE 1.3 mph2.1 kmh 29.85 in1010.8 mb 0.00 in0.0 mm 0.00 in0.0 mm 0.01 in0.3 mm
02:37 AM 58.3°F14.6°C 57.1°F13.9°C 96% Calm Calm 1.3 mph2.1 kmh 29.85 in1010.8 mb 0.00 in0.0 mm 0.00 in0.0 mm 0.01 in0.3 mm
02:42 AM 58.3°F14.6°C 57.1°F13.9°C 96% 1.3 mph ENE2.1 kmh ENE 1.3 mph2.1 kmh 29.84 in1010.5 mb 0.00 in0.0 mm 0.00 in0.0 mm 0.01 in0.3 mm
02:47 AM 58.2°F14.6°C 57.0°F13.9°C 96% 1.3 mph NE2.1 kmh NE 1.3 mph2.1 kmh 29.84 in1010.5 mb 0.00 in0.0 mm 0.00 in0.0 mm 0.01 in0.3 mm
02:52 AM 58.2°F14.6°C 57.0°F13.9°C 96% 2.1 mph NW3.4 kmh NW 3.8 mph6.1 kmh 29.84 in1010.5 mb 0.00 in0.0 mm 0.00 in0.0 mm 0.01 in0.3 mm
02:57 AM 58.2°F14.6°C 57.0°F13.9°C 96% 2.1 mph N3.4 kmh N 3.8 mph6.1 kmh 29.83 in1010.2 mb 0.00 in0.0 mm 0.00 in0.0 mm 0.01 in0.3 mm
03:02 AM 58.2°F14.6°C 57.0°F13.9°C 96% 1.5 mph E2.4 kmh E 3.8 mph6.1 kmh 29.83 in1010.2 mb 0.00 in0.0 mm 0.00 in0.0 mm 0.01 in0.3 mm
03:07 AM 58.2°F14.6°C 57.0°F13.9°C 96% 1.4 mph ENE2.3 kmh ENE 3.0 mph4.8 kmh 29.82 in1009.8 mb 0.00 in0.0 mm 0.00 in0.0 mm 0.01 in0.3 mm
03:12 AM 58.2°F14.6°C 57.0°F13.9°C 96% Calm Calm 2.5 mph4.0 kmh 29.83 in1010.2 mb 0.00 in0.0 mm 0.00 in0.0 mm 0.01 in0.3 mm
03:18 AM 58.2°F14.6°C 57.0°F13.9°C 96% 1.3 mph WNW2.1 kmh WNW 2.0 mph3.2 kmh 29.82 in1009.8 mb 0.00 in0.0 mm 0.00 in0.0 mm 0.01 in0.3 mm
03:23 AM 58.2°F14.6°C 57.0°F13.9°C 96% 1.3 mph SW2.1 kmh SW 2.0 mph3.2 kmh 29.83 in1010.2 mb 0.00 in0.0 mm 0.00 in0.0 mm 0.01 in0.3 mm
03:28 AM 58.2°F14.6°C 57.0°F13.9°C 96% 1.3 mph SW2.1 kmh SW 1.3 mph2.1 kmh 29.82 in1009.8 mb 0.00 in0.0 mm 0.00 in0.0 mm 0.01 in0.3 mm
03:33 AM 58.2°F14.6°C 57.0°F13.9°C 96% 1.3 mph NNW2.1 kmh NNW 3.8 mph6.1 kmh 29.82 in1009.8 mb 0.00 in0.0 mm 0.00 in0.0 mm 0.01 in0.3 mm
03:38 AM 58.2°F14.6°C 57.0°F13.9°C 96% 1.3 mph ENE2.1 kmh ENE 3.8 mph6.1 kmh 29.82 in1009.8 mb 0.01 in0.3 mm 0.12 in3.0 mm 0.02 in0.5 mm
03:43 AM 58.1°F14.5°C 56.9°F13.8°C 96% Calm Calm 3.0 mph4.8 kmh 29.82 in1009.8 mb 0.01 in0.3 mm 0.00 in0.0 mm 0.02 in0.5 mm
03:48 AM 58.0°F14.4°C 56.8°F13.8°C 96% 1.3 mph ENE2.1 kmh ENE 3.0 mph4.8 kmh 29.82 in1009.8 mb 0.01 in0.3 mm 0.00 in0.0 mm 0.02 in0.5 mm
03:53 AM 58.0°F14.4°C 56.8°F13.8°C 96% 1.3 mph NNE2.1 kmh NNE 2.5 mph4.0 kmh 29.82 in1009.8 mb 0.01 in0.3 mm 0.00 in0.0 mm 0.02 in0.5 mm
03:58 AM 58.0°F14.4°C 56.8°F13.8°C 96% 2.2 mph NNW3.5 kmh NNW 3.8 mph6.1 kmh 29.81 in1009.5 mb 0.01 in0.3 mm 0.00 in0.0 mm 0.02 in0.5 mm
04:03 AM 57.9°F14.4°C 56.7°F13.7°C 96% 1.9 mph NW3.1 kmh NW 5.0 mph8.0 kmh 29.81 in1009.5 mb 0.01 in0.3 mm 0.00 in0.0 mm 0.02 in0.5 mm
04:08 AM 58.0°F14.4°C 56.8°F13.8°C 96% Calm Calm 5.0 mph8.0 kmh 29.82 in1009.8 mb 0.02 in0.5 mm 0.12 in3.0 mm 0.03 in0.8 mm
04:13 AM 58.0°F14.4°C 56.8°F13.8°C 96% 1.3 mph NW2.1 kmh NW 4.0 mph6.4 kmh 29.82 in1009.8 mb 0.02 in0.5 mm 0.00 in0.0 mm 0.03 in0.8 mm
04:18 AM 58.0°F14.4°C 56.8°F13.8°C 96% 1.3 mph NW2.1 kmh NW 4.0 mph6.4 kmh 29.82 in1009.8 mb 0.02 in0.5 mm 0.00 in0.0 mm 0.03 in0.8 mm
04:23 AM 58.0°F14.4°C 56.8°F13.8°C 96% 3.4 mph NNW5.5 kmh NNW 6.3 mph10.1 kmh 29.81 in1009.5 mb 0.02 in0.5 mm 0.00 in0.0 mm 0.03 in0.8 mm
04:28 AM 58.0°F14.4°C 56.8°F13.8°C 96% 3.3 mph N5.3 kmh N 6.3 mph10.1 kmh 29.81 in1009.5 mb 0.02 in0.5 mm 0.00 in0.0 mm 0.03 in0.8 mm
04:33 AM 58.0°F14.4°C 56.8°F13.8°C 96% 4.2 mph N6.8 kmh N 6.3 mph10.1 kmh 29.81 in1009.5 mb 0.02 in0.5 mm 0.00 in0.0 mm 0.03 in0.8 mm
04:38 AM 58.0°F14.4°C 56.8°F13.8°C 96% 3.4 mph NNW5.5 kmh NNW 6.3 mph10.1 kmh 29.81 in1009.5 mb 0.01 in0.3 mm 0.00 in0.0 mm 0.03 in0.8 mm
04:43 AM 58.0°F14.4°C 56.8°F13.8°C 96% 3.2 mph NNW5.1 kmh NNW 6.3 mph10.1 kmh 29.81 in1009.5 mb 0.01 in0.3 mm 0.00 in0.0 mm 0.03 in0.8 mm
04:48 AM 57.9°F14.4°C 56.7°F13.7°C 96% 2.2 mph NNE3.5 kmh NNE 5.0 mph8.0 kmh 29.81 in1009.5 mb 0.01 in0.3 mm 0.00 in0.0 mm 0.03 in0.8 mm
04:53 AM 57.8°F14.3°C 56.3°F13.5°C 95% 2.8 mph N4.5 kmh N 6.3 mph10.1 kmh 29.81 in1009.5 mb 0.01 in0.3 mm 0.00 in0.0 mm 0.03 in0.8 mm
04:58 AM 57.7°F14.3°C 56.5°F13.6°C 96% 2.0 mph NNW3.2 kmh NNW 6.3 mph10.1 kmh 29.81 in1009.5 mb 0.03 in0.8 mm 0.24 in6.1 mm 0.05 in1.3 mm
05:03 AM 57.7°F14.3°C 56.2°F13.4°C 95% 3.0 mph N4.8 kmh N 5.0 mph8.0 kmh 29.81 in1009.5 mb 0.05 in1.3 mm 0.02 in0.5 mm 0.07 in1.8 mm
05:08 AM 57.6°F14.2°C 56.4°F13.6°C 96% 3.3 mph NNW5.3 kmh NNW 6.3 mph10.1 kmh 29.80 in1009.1 mb 0.06 in1.5 mm 0.12 in3.0 mm 0.09 in2.3 mm
05:13 AM 57.6°F14.2°C 56.4°F13.6°C 96% 2.2 mph N3.5 kmh N 6.3 mph10.1 kmh 29.80 in1009.1 mb 0.06 in1.5 mm 0.00 in0.0 mm 0.09 in2.3 mm
05:18 AM 57.6°F14.2°C 56.4°F13.6°C 96% 2.2 mph NNW3.5 kmh NNW 6.3 mph10.1 kmh 29.80 in1009.1 mb 0.07 in1.8 mm 0.12 in3.0 mm 0.10 in2.5 mm
05:23 AM 57.6°F14.2°C 56.4°F13.6°C 96% 4.2 mph NNW6.8 kmh NNW 6.3 mph10.1 kmh 29.80 in1009.1 mb 0.07 in1.8 mm 0.00 in0.0 mm 0.10 in2.5 mm
05:28 AM 57.5°F14.2°C 56.0°F13.3°C 95% 1.4 mph NE2.3 kmh NE 6.3 mph10.1 kmh 29.80 in1009.1 mb 0.07 in1.8 mm 0.00 in0.0 mm 0.10 in2.5 mm
05:33 AM 57.5°F14.2°C 56.3°F13.5°C 96% Calm Calm 6.3 mph10.1 kmh 29.80 in1009.1 mb 0.07 in1.8 mm 0.00 in0.0 mm 0.10 in2.5 mm
05:38 AM 57.5°F14.2°C 56.3°F13.5°C 96% 1.5 mph NNE2.4 kmh NNE 6.0 mph9.7 kmh 29.80 in1009.1 mb 0.07 in1.8 mm 0.00 in0.0 mm 0.10 in2.5 mm
05:43 AM 57.4°F14.1°C 55.9°F13.3°C 95% 2.5 mph NNW4.0 kmh NNW 5.0 mph8.0 kmh 29.80 in1009.1 mb 0.08 in2.0 mm 0.12 in3.0 mm 0.12 in3.0 mm
05:48 AM 57.3°F14.1°C 55.8°F13.2°C 95% 1.6 mph NNW2.6 kmh NNW 5.0 mph8.0 kmh 29.80 in1009.1 mb 0.08 in2.0 mm 0.00 in0.0 mm 0.12 in3.0 mm
05:53 AM 57.3°F14.1°C 55.8°F13.2°C 95% Calm Calm 4.0 mph6.4 kmh 29.80 in1009.1 mb 0.10 in2.5 mm 0.24 in6.1 mm 0.14 in3.6 mm
05:58 AM 57.3°F14.1°C 55.8°F13.2°C 95% 1.6 mph NW2.6 kmh NW 4.0 mph6.4 kmh 29.80 in1009.1 mb 0.12 in3.0 mm 0.24 in6.1 mm 0.17 in4.3 mm
06:03 AM 57.3°F14.1°C 56.1°F13.4°C 96% 1.3 mph NNE2.1 kmh NNE 2.5 mph4.0 kmh 29.81 in1009.5 mb 0.12 in3.0 mm 0.00 in0.0 mm 0.20 in5.1 mm
06:08 AM 57.3°F14.1°C 56.1°F13.4°C 96% 1.3 mph N2.1 kmh N 2.5 mph4.0 kmh 29.81 in1009.5 mb 0.13 in3.3 mm 0.12 in3.0 mm 0.22 in5.6 mm
06:13 AM 57.3°F14.1°C 56.1°F13.4°C 96% 1.5 mph N2.4 kmh N 3.8 mph6.1 kmh 29.80 in1009.1 mb 0.16 in4.1 mm 0.36 in9.1 mm 0.25 in6.4 mm
06:18 AM 57.2°F14.0°C 56.0°F13.3°C 96% 1.8 mph NNE2.9 kmh NNE 6.3 mph10.1 kmh 29.80 in1009.1 mb 0.22 in5.6 mm 0.72 in18.3 mm 0.33 in8.4 mm
06:23 AM 57.2°F14.0°C 56.0°F13.3°C 96% 1.6 mph NNW2.6 kmh NNW 6.3 mph10.1 kmh 29.80 in1009.1 mb 0.25 in6.4 mm 0.36 in9.1 mm 0.36 in9.1 mm
06:28 AM 57.2°F14.0°C 56.0°F13.3°C 96% 2.4 mph NNW3.9 kmh NNW 8.8 mph14.2 kmh 29.80 in1009.1 mb 0.26 in6.6 mm 0.12 in3.0 mm 0.37 in9.4 mm
06:33 AM 57.2°F14.0°C 56.0°F13.3°C 96% 1.7 mph NW2.7 kmh NW 8.8 mph14.2 kmh 29.80 in1009.1 mb 0.26 in6.6 mm 0.00 in0.0 mm 0.37 in9.4 mm
06:38 AM 57.1°F13.9°C 55.9°F13.3°C 96% 1.5 mph NW2.4 kmh NW 8.0 mph12.9 kmh 29.81 in1009.5 mb 0.26 in6.6 mm 0.00 in0.0 mm 0.37 in9.4 mm
06:43 AM 57.1°F13.9°C 55.9°F13.3°C 96% Calm Calm 8.0 mph12.9 kmh 29.81 in1009.5 mb 0.26 in6.6 mm 0.00 in0.0 mm 0.38 in9.7 mm
06:48 AM 57.1°F13.9°C 55.9°F13.3°C 96% 1.3 mph NW2.1 kmh NW 3.0 mph4.8 kmh 29.81 in1009.5 mb 0.26 in6.6 mm 0.00 in0.0 mm 0.38 in9.7 mm
06:53 AM 57.1°F13.9°C 55.9°F13.3°C 96% 1.7 mph NW2.7 kmh NW 2.5 mph4.0 kmh 29.82 in1009.8 mb 0.25 in6.4 mm 0.00 in0.0 mm 0.39 in9.9 mm
06:58 AM 57.1°F13.9°C 55.9°F13.3°C 96% 2.0 mph NW3.2 kmh NW 2.5 mph4.0 kmh 29.81 in1009.5 mb 0.22 in5.6 mm 0.00 in0.0 mm 0.39 in9.9 mm
07:03 AM 57.0°F13.9°C 55.8°F13.2°C 96% Calm Calm 2.5 mph4.0 kmh 29.82 in1009.8 mb 0.19 in4.8 mm 0.00 in0.0 mm 0.39 in9.9 mm
07:08 AM 57.1°F13.9°C 55.9°F13.3°C 96% Calm Calm 2.5 mph4.0 kmh 29.82 in1009.8 mb 0.17 in4.3 mm 0.00 in0.0 mm 0.39 in9.9 mm
07:13 AM 57.1°F13.9°C 55.9°F13.3°C 96% 2.8 mph N4.5 kmh N 3.8 mph6.1 kmh 29.81 in1009.5 mb 0.14 in3.6 mm 0.00 in0.0 mm 0.40 in10.2 mm
07:18 AM 57.1°F13.9°C 55.9°F13.3°C 96% 1.4 mph NE2.3 kmh NE 7.5 mph12.1 kmh 29.81 in1009.5 mb 0.06 in1.5 mm 0.00 in0.0 mm 0.40 in10.2 mm
07:23 AM 57.1°F13.9°C 55.9°F13.3°C 96% 3.8 mph NNW6.1 kmh NNW 7.5 mph12.1 kmh 29.81 in1009.5 mb 0.05 in1.3 mm 0.00 in0.0 mm 0.41 in10.4 mm
07:28 AM 56.9°F13.8°C 55.4°F13.0°C 95% 1.9 mph NW3.1 kmh NW 7.5 mph12.1 kmh 29.81 in1009.5 mb 0.05 in1.3 mm 0.00 in0.0 mm 0.42 in10.7 mm
07:34 AM 56.9°F13.8°C 55.4°F13.0°C 95% 1.3 mph SW2.1 kmh SW 7.5 mph12.1 kmh 29.81 in1009.5 mb 0.06 in1.5 mm 0.10 in2.5 mm 0.43 in10.9 mm
07:38 AM 56.9°F13.8°C 55.7°F13.2°C 96% 3.9 mph NNW6.3 kmh NNW 7.0 mph11.3 kmh 29.81 in1009.5 mb 0.06 in1.5 mm 0.00 in0.0 mm 0.44 in11.2 mm
07:44 AM 56.8°F13.8°C 55.6°F13.1°C 96% 2.3 mph N3.7 kmh N 7.5 mph12.1 kmh 29.80 in1009.1 mb 0.07 in1.8 mm 0.10 in2.5 mm 0.45 in11.4 mm
07:49 AM 56.8°F13.8°C 55.3°F12.9°C 95% 1.3 mph W2.1 kmh W 7.5 mph12.1 kmh 29.81 in1009.5 mb 0.08 in2.0 mm 0.12 in3.0 mm 0.46 in11.7 mm
07:54 AM 56.8°F13.8°C 55.6°F13.1°C 96% 1.3 mph NNW2.1 kmh NNW 6.0 mph9.7 kmh 29.81 in1009.5 mb 0.07 in1.8 mm 0.00 in0.0 mm 0.46 in11.7 mm
07:59 AM 56.9°F13.8°C 55.7°F13.2°C 96% 1.3 mph NW2.1 kmh NW 5.0 mph8.0 kmh 29.81 in1009.5 mb 0.08 in2.0 mm 0.12 in3.0 mm 0.47 in11.9 mm
08:04 AM 56.9°F13.8°C 55.7°F13.2°C 96% 4.3 mph N6.9 kmh N 7.5 mph12.1 kmh 29.81 in1009.5 mb 0.08 in2.0 mm 0.00 in0.0 mm 0.47 in11.9 mm
08:09 AM 57.0°F13.9°C 55.8°F13.2°C 96% 1.5 mph ENE2.4 kmh ENE 7.5 mph12.1 kmh 29.81 in1009.5 mb 0.09 in2.3 mm 0.12 in3.0 mm 0.48 in12.2 mm
08:14 AM 57.0°F13.9°C 55.8°F13.2°C 96% 1.3 mph NNW2.1 kmh NNW 7.5 mph12.1 kmh 29.81 in1009.5 mb 0.09 in2.3 mm 0.00 in0.0 mm 0.49 in12.4 mm
08:19 AM 57.0°F13.9°C 55.8°F13.2°C 96% 1.8 mph N2.9 kmh N 6.0 mph9.7 kmh 29.81 in1009.5 mb 0.11 in2.8 mm 0.24 in6.1 mm 0.51 in13.0 mm
08:24 AM 57.0°F13.9°C 55.8°F13.2°C 96% 1.8 mph N2.9 kmh N 5.0 mph8.0 kmh 29.81 in1009.5 mb 0.15 in3.8 mm 0.48 in12.2 mm 0.56 in14.2 mm
08:29 AM 56.7°F13.7°C 55.2°F12.9°C 95% 5.4 mph N8.7 kmh N 11.3 mph18.2 kmh 29.81 in1009.5 mb 0.18 in4.6 mm 0.36 in9.1 mm 0.60 in15.2 mm
08:34 AM 56.6°F13.7°C 55.1°F12.8°C 95% 2.9 mph NNW4.7 kmh NNW 12.5 mph20.1 kmh 29.81 in1009.5 mb 0.19 in4.8 mm 0.12 in3.0 mm 0.62 in15.7 mm
08:39 AM 56.4°F13.6°C 54.9°F12.7°C 95% 1.7 mph N2.7 kmh N 12.5 mph20.1 kmh 29.81 in1009.5 mb 0.20 in5.1 mm 0.12 in3.0 mm 0.64 in16.3 mm
08:44 AM 56.4°F13.6°C 55.2°F12.9°C 96% 4.4 mph N7.1 kmh N 9.0 mph14.5 kmh 29.81 in1009.5 mb 0.21 in5.3 mm 0.12 in3.0 mm 0.66 in16.8 mm
08:49 AM 56.4°F13.6°C 55.2°F12.9°C 96% 4.5 mph N7.2 kmh N 8.8 mph14.2 kmh 29.80 in1009.1 mb 0.22 in5.6 mm 0.12 in3.0 mm 0.68 in17.3 mm
08:54 AM 56.4°F13.6°C 55.3°F12.9°C 96% 5.3 mph N8.5 kmh N 11.3 mph18.2 kmh 29.80 in1009.1 mb 0.25 in6.4 mm 0.36 in9.1 mm 0.71 in18.0 mm
08:59 AM 56.4°F13.6°C 55.2°F12.9°C 96% 3.1 mph N5.0 kmh N 11.3 mph18.2 kmh 29.80 in1009.1 mb 0.25 in6.4 mm 0.00 in0.0 mm 0.72 in18.3 mm
09:04 AM 56.5°F13.6°C 55.3°F12.9°C 96% 1.9 mph NNW3.1 kmh NNW 9.0 mph14.5 kmh 29.80 in1009.1 mb 0.26 in6.6 mm 0.01 in0.3 mm 0.73 in18.5 mm
09:09 AM 56.5°F13.6°C 55.3°F12.9°C 96% 2.4 mph N3.9 kmh N 9.0 mph14.5 kmh 29.80 in1009.1 mb 0.26 in6.6 mm 0.00 in0.0 mm 0.75 in19.1 mm
09:14 AM 56.4°F13.6°C 55.2°F12.9°C 96% 1.3 mph N2.1 kmh N 7.0 mph11.3 kmh 29.80 in1009.1 mb 0.26 in6.6 mm 0.00 in0.0 mm 0.76 in19.3 mm
09:19 AM 56.3°F13.5°C 54.8°F12.7°C 95% 1.9 mph N3.1 kmh N 5.0 mph8.0 kmh 29.80 in1009.1 mb 0.25 in6.4 mm 0.00 in0.0 mm 0.77 in19.6 mm
09:24 AM 56.2°F13.4°C 54.8°F12.7°C 95% 3.4 mph NNW5.5 kmh NNW 6.3 mph10.1 kmh 29.81 in1009.5 mb 0.22 in5.6 mm 0.00 in0.0 mm 0.79 in20.1 mm
09:29 AM 56.0°F13.3°C 54.5°F12.5°C 95% 4.6 mph NNW7.4 kmh NNW 8.8 mph14.2 kmh 29.81 in1009.5 mb 0.20 in5.1 mm 0.00 in0.0 mm 0.80 in20.3 mm
09:34 AM 55.8°F13.2°C 54.4°F12.4°C 95% 4.0 mph NNW6.4 kmh NNW 8.8 mph14.2 kmh 29.80 in1009.1 mb 0.20 in5.1 mm 0.00 in0.0 mm 0.82 in20.8 mm
09:39 AM 55.7°F13.2°C 54.3°F12.4°C 95% 3.8 mph N6.1 kmh N 8.8 mph14.2 kmh 29.80 in1009.1 mb 0.21 in5.3 mm 0.12 in3.0 mm 0.85 in21.6 mm
09:44 AM 55.7°F13.2°C 54.3°F12.4°C 95% 2.4 mph NNW3.9 kmh NNW 8.8 mph14.2 kmh 29.80 in1009.1 mb 0.22 in5.6 mm 0.12 in3.0 mm 0.88 in22.4 mm
09:49 AM 55.7°F13.2°C 54.3°F12.4°C 95% 1.3 mph NW2.1 kmh NW 7.0 mph11.3 kmh 29.80 in1009.1 mb 0.24 in6.1 mm 0.24 in6.1 mm 0.93 in23.6 mm
09:54 AM 55.6°F13.1°C 54.4°F12.4°C 96% 1.9 mph N3.1 kmh N 7.0 mph11.3 kmh 29.80 in1009.1 mb 0.26 in6.6 mm 0.24 in6.1 mm 0.98 in24.9 mm
09:59 AM 55.6°F13.1°C 54.4°F12.4°C 96% Calm Calm 3.8 mph6.1 kmh 29.80 in1009.1 mb 0.34 in8.6 mm 0.96 in24.4 mm 1.06 in26.9 mm
10:04 AM 55.6°F13.1°C 54.4°F12.4°C 96% 2.2 mph NNW3.5 kmh NNW 5.0 mph8.0 kmh 29.80 in1009.1 mb 0.39 in9.9 mm 0.05 in1.3 mm 1.12 in28.4 mm
10:09 AM 55.7°F13.2°C 54.5°F12.5°C 96% 1.3 mph NW2.1 kmh NW 5.0 mph8.0 kmh 29.81 in1009.5 mb 0.43 in10.9 mm 0.48 in12.2 mm 1.18 in30.0 mm
10:14 AM 55.7°F13.2°C 54.6°F12.6°C 96% 2.0 mph N3.2 kmh N 4.0 mph6.4 kmh 29.81 in1009.5 mb 0.47 in11.9 mm 0.48 in12.2 mm 1.23 in31.2 mm
10:19 AM 55.6°F13.1°C 54.5°F12.5°C 96% 1.3 mph NNW2.1 kmh NNW 6.3 mph10.1 kmh 29.81 in1009.5 mb 0.51 in13.0 mm 0.48 in12.2 mm 1.29 in32.8 mm
10:24 AM 55.7°F13.2°C 54.5°F12.5°C 96% 1.6 mph NNE2.6 kmh NNE 6.3 mph10.1 kmh 29.82 in1009.8 mb 0.56 in14.2 mm 0.60 in15.2 mm 1.34 in34.0 mm
10:29 AM 55.6°F13.1°C 54.5°F12.5°C 96% 1.9 mph N3.1 kmh N 6.3 mph10.1 kmh 29.82 in1009.8 mb 0.64 in16.3 mm 0.96 in24.4 mm 1.44 in36.6 mm
10:34 AM 55.6°F13.1°C 54.4°F12.4°C 96% 5.4 mph N8.7 kmh N 8.8 mph14.2 kmh 29.81 in1009.5 mb 0.72 in18.3 mm 0.96 in24.4 mm 1.54 in39.1 mm
10:39 AM 55.5°F13.1°C 54.3°F12.4°C 96% 4.1 mph N6.6 kmh N 8.8 mph14.2 kmh 29.81 in1009.5 mb 0.78 in19.8 mm 0.72 in18.3 mm 1.63 in41.4 mm
10:44 AM 55.5°F13.1°C 54.4°F12.4°C 96% 5.0 mph NNW8.0 kmh NNW 8.8 mph14.2 kmh 29.81 in1009.5 mb 0.79 in20.1 mm 0.12 in3.0 mm 1.67 in42.4 mm
10:49 AM 55.6°F13.1°C 54.4°F12.4°C 96% 1.7 mph NE2.7 kmh NE 8.8 mph14.2 kmh 29.81 in1009.5 mb 0.78 in19.8 mm 0.00 in0.0 mm 1.71 in43.4 mm
10:55 AM 55.8°F13.2°C 54.6°F12.6°C 96% 4.9 mph NNW7.9 kmh NNW 7.5 mph12.1 kmh 29.81 in1009.5 mb 0.78 in19.8 mm 0.00 in0.0 mm 1.76 in44.7 mm
11:00 AM 55.9°F13.3°C 54.7°F12.6°C 96% 2.9 mph NNE4.7 kmh NNE 7.5 mph12.1 kmh 29.81 in1009.5 mb 0.73 in18.5 mm 0.00 in0.0 mm 1.81 in46.0 mm
11:05 AM 55.9°F13.3°C 54.8°F12.7°C 96% 4.8 mph N7.7 kmh N 7.5 mph12.1 kmh 29.81 in1009.5 mb 0.72 in18.3 mm 0.00 in0.0 mm 1.86 in47.2 mm
11:10 AM 55.8°F13.2°C 54.6°F12.6°C 96% 5.6 mph N9.0 kmh N 10.0 mph16.1 kmh 29.81 in1009.5 mb 0.71 in18.0 mm 0.00 in0.0 mm 1.90 in48.3 mm
11:15 AM 55.8°F13.2°C 54.6°F12.6°C 96% 2.9 mph NNW4.7 kmh NNW 10.0 mph16.1 kmh 29.81 in1009.5 mb 0.70 in17.8 mm 0.00 in0.0 mm 1.94 in49.3 mm
11:20 AM 55.9°F13.3°C 54.7°F12.6°C 96% 2.4 mph NW3.9 kmh NW 8.8 mph14.2 kmh 29.81 in1009.5 mb 0.68 in17.3 mm 0.00 in0.0 mm 1.97 in50.0 mm
11:25 AM 55.9°F13.3°C 54.7°F12.6°C 96% 7.3 mph NNW11.7 kmh NNW 11.3 mph18.2 kmh 29.81 in1009.5 mb 0.66 in16.8 mm 0.00 in0.0 mm 2.02 in51.3 mm
11:30 AM 56.0°F13.3°C 54.8°F12.7°C 96% 4.8 mph NNW7.7 kmh NNW 11.3 mph18.2 kmh 29.81 in1009.5 mb 0.60 in15.2 mm 0.00 in0.0 mm 2.06 in52.3 mm
11:35 AM 55.9°F13.3°C 54.8°F12.7°C 96% 2.4 mph N3.9 kmh N 10.0 mph16.1 kmh 29.81 in1009.5 mb 0.54 in13.7 mm 0.00 in0.0 mm 2.09 in53.1 mm
11:40 AM 55.9°F13.3°C 54.8°F12.7°C 96% 4.7 mph NNW7.6 kmh NNW 13.8 mph22.2 kmh 29.81 in1009.5 mb 0.49 in12.4 mm 0.00 in0.0 mm 2.13 in54.1 mm
11:45 AM 55.8°F13.2°C 54.6°F12.6°C 96% 6.2 mph NNW10.0 kmh NNW 13.8 mph22.2 kmh 29.81 in1009.5 mb 0.49 in12.4 mm 0.00 in0.0 mm 2.17 in55.1 mm
11:50 AM 55.8°F13.2°C 54.6°F12.6°C 96% 3.4 mph NNW5.5 kmh NNW 11.3 mph18.2 kmh 29.81 in1009.5 mb 0.49 in12.4 mm 0.00 in0.0 mm 2.22 in56.4 mm
11:55 AM 55.9°F13.3°C 54.7°F12.6°C 96% 5.1 mph N8.2 kmh N 10.0 mph16.1 kmh 29.81 in1009.5 mb 0.48 in12.2 mm 0.00 in0.0 mm 2.25 in57.2 mm
12:00 PM 55.9°F13.3°C 54.7°F12.6°C 96% 5.9 mph N9.5 kmh N 10.0 mph16.1 kmh 29.80 in1009.1 mb 0.47 in11.9 mm 0.00 in0.0 mm 2.29 in58.2 mm
12:05 PM 55.9°F13.3°C 54.7°F12.6°C 96% 5.6 mph N9.0 kmh N 10.0 mph16.1 kmh 29.80 in1009.1 mb 0.46 in11.7 mm 0.00 in0.0 mm 2.33 in59.2 mm
12:10 PM 55.9°F13.3°C 54.7°F12.6°C 96% 4.3 mph NNW6.9 kmh NNW 10.0 mph16.1 kmh 29.81 in1009.5 mb 0.46 in11.7 mm 0.00 in0.0 mm 2.36 in59.9 mm
12:15 PM 55.9°F13.3°C 54.7°F12.6°C 96% 1.8 mph N2.9 kmh N 10.0 mph16.1 kmh 29.81 in1009.5 mb 0.43 in10.9 mm 0.00 in0.0 mm 2.38 in60.5 mm
12:20 PM 56.0°F13.3°C 54.8°F12.7°C 96% 1.4 mph NNE2.3 kmh NNE 10.0 mph16.1 kmh 29.81 in1009.5 mb 0.45 in11.4 mm 0.24 in6.1 mm 2.44 in62.0 mm
12:25 PM 56.1°F13.4°C 54.9°F12.7°C 96% 3.6 mph NNW5.8 kmh NNW 7.5 mph12.1 kmh 29.81 in1009.5 mb 0.49 in12.4 mm 0.48 in12.2 mm 2.52 in64.0 mm
12:30 PM 56.1°F13.4°C 54.9°F12.7°C 96% 7.2 mph N11.6 kmh N 10.0 mph16.1 kmh 29.80 in1009.1 mb 0.50 in12.7 mm 0.12 in3.0 mm 2.56 in65.0 mm
12:35 PM 56.1°F13.4°C 54.9°F12.7°C 96% 5.0 mph 8.0 kmh 11.3 mph18.2 kmh 29.80 in1009.1 mb 0.51 in13.0 mm 0.12 in3.0 mm 2.60 in66.0 mm
12:40 PM 56.1°F13.4°C 54.9°F12.7°C 96% 1.5 mph NW2.4 kmh NW 11.3 mph18.2 kmh 29.81 in1009.5 mb 0.51 in13.0 mm 0.00 in0.0 mm 2.66 in67.6 mm
12:45 PM 56.1°F13.4°C 54.9°F12.7°C 96% 3.8 mph NNW6.1 kmh NNW 11.3 mph18.2 kmh 29.81 in1009.5 mb 0.60 in15.2 mm 1.08 in27.4 mm 2.78 in70.6 mm
12:51 PM 56.0°F13.3°C 54.8°F12.7°C 96% 3.1 mph NNW5.0 kmh NNW 9.0 mph14.5 kmh 29.81 in1009.5 mb 0.66 in16.8 mm 0.60 in15.2 mm 2.89 in73.4 mm
12:56 PM 56.0°F13.3°C 54.8°F12.7°C 96% 1.8 mph WSW2.9 kmh WSW 9.0 mph14.5 kmh 29.81 in1009.5 mb 0.71 in18.0 mm 0.60 in15.2 mm 2.97 in75.4 mm
01:00 PM 55.9°F13.3°C 54.7°F12.6°C 96% 3.6 mph NNW5.8 kmh NNW 7.5 mph12.1 kmh 29.80 in1009.1 mb 0.72 in18.3 mm 0.01 in0.3 mm 3.02 in76.7 mm
01:06 PM 56.0°F13.3°C 54.8°F12.7°C 96% 2.5 mph NNW4.0 kmh NNW 7.5 mph12.1 kmh 29.80 in1009.1 mb 0.70 in17.8 mm 0.00 in0.0 mm 3.03 in77.0 mm
01:11 PM 55.9°F13.3°C 54.7°F12.6°C 96% 3.8 mph N6.1 kmh N 8.8 mph14.2 kmh 29.80 in1009.1 mb 0.68 in17.3 mm 0.00 in0.0 mm 3.04 in77.2 mm
01:16 PM 55.9°F13.3°C 54.7°F12.6°C 96% 3.7 mph NNW6.0 kmh NNW 8.8 mph14.2 kmh 29.80 in1009.1 mb 0.67 in17.0 mm 0.00 in0.0 mm 3.07 in78.0 mm
01:21 PM 56.0°F13.3°C 54.8°F12.7°C 96% 3.2 mph N5.1 kmh N 7.0 mph11.3 kmh 29.79 in1008.8 mb 0.65 in16.5 mm 0.00 in0.0 mm 3.11 in79.0 mm
01:25 PM 56.1°F13.4°C 54.9°F12.7°C 96% 3.8 mph NNW6.1 kmh NNW 7.0 mph11.3 kmh 29.79 in1008.8 mb 0.59 in15.0 mm 0.00 in0.0 mm 3.12 in79.2 mm
01:31 PM 56.2°F13.4°C 55.0°F12.8°C 96% Calm Calm 6.3 mph10.1 kmh 29.80 in1009.1 mb 0.57 in14.5 mm 0.00 in0.0 mm 3.14 in79.8 mm
01:36 PM 56.3°F13.5°C 55.4°F13.0°C 97% 2.9 mph N4.7 kmh N 6.0 mph9.7 kmh 29.79 in1008.8 mb 0.57 in14.5 mm 0.00 in0.0 mm 3.17 in80.5 mm
01:41 PM 56.3°F13.5°C 55.1°F12.8°C 96% 3.0 mph N4.8 kmh N 7.5 mph12.1 kmh 29.79 in1008.8 mb 0.51 in13.0 mm 0.00 in0.0 mm 3.18 in80.8 mm
01:46 PM 56.4°F13.6°C 55.2°F12.9°C 96% 3.4 mph NNW5.5 kmh NNW 7.5 mph12.1 kmh 29.79 in1008.8 mb 0.39 in9.9 mm 0.00 in0.0 mm 3.20 in81.3 mm
01:51 PM 56.5°F13.6°C 55.6°F13.1°C 97% 1.9 mph N3.1 kmh N 6.0 mph9.7 kmh 29.79 in1008.8 mb 0.31 in7.9 mm 0.00 in0.0 mm 3.21 in81.5 mm
01:56 PM 56.5°F13.6°C 55.3°F12.9°C 96% 1.7 mph NNW2.7 kmh NNW 6.0 mph9.7 kmh 29.79 in1008.8 mb 0.25 in6.4 mm 0.00 in0.0 mm 3.23 in82.0 mm
02:01 PM 56.5°F13.6°C 55.3°F12.9°C 96% 1.3 mph N2.1 kmh N 5.0 mph8.0 kmh 29.79 in1008.8 mb 0.28 in7.1 mm 0.03 in0.8 mm 3.31 in84.1 mm
02:06 PM 56.7°F13.7°C 55.8°F13.2°C 97% 1.7 mph N2.7 kmh N 5.0 mph8.0 kmh 29.79 in1008.8 mb 0.35 in8.9 mm 0.84 in21.3 mm 3.38 in85.9 mm
02:11 PM 56.8°F13.8°C 55.9°F13.3°C 97% 1.6 mph NNW2.6 kmh NNW 4.0 mph6.4 kmh 29.79 in1008.8 mb 0.37 in9.4 mm 0.24 in6.1 mm 3.41 in86.6 mm
02:16 PM 56.7°F13.7°C 55.5°F13.1°C 96% 2.3 mph N3.7 kmh N 4.0 mph6.4 kmh 29.79 in1008.8 mb 0.35 in8.9 mm 0.00 in0.0 mm 3.42 in86.9 mm
02:21 PM 56.8°F13.8°C 55.9°F13.3°C 97% 2.5 mph N4.0 kmh N 3.8 mph6.1 kmh 29.80 in1009.1 mb 0.34 in8.6 mm 0.00 in0.0 mm 3.44 in87.4 mm
02:26 PM 56.8°F13.8°C 55.6°F13.1°C 96% 2.5 mph NNW4.0 kmh NNW 5.0 mph8.0 kmh 29.79 in1008.8 mb 0.33 in8.4 mm 0.00 in0.0 mm 3.45 in87.6 mm
02:31 PM 56.8°F13.8°C 55.6°F13.1°C 96% 2.3 mph NNE3.7 kmh NNE 6.3 mph10.1 kmh 29.79 in1008.8 mb 0.34 in8.6 mm 0.12 in3.0 mm 3.48 in88.4 mm
02:36 PM 56.8°F13.8°C 55.6°F13.1°C 96% 3.0 mph N4.8 kmh N 7.5 mph12.1 kmh 29.79 in1008.8 mb 0.33 in8.4 mm 0.00 in0.0 mm 3.50 in88.9 mm
02:41 PM 56.9°F13.8°C 55.7°F13.2°C 96% 1.8 mph N2.9 kmh N 7.5 mph12.1 kmh 29.79 in1008.8 mb 0.34 in8.6 mm 0.12 in3.0 mm 3.52 in89.4 mm
02:46 PM 57.0°F13.9°C 56.1°F13.4°C 97% 1.6 mph NNE2.6 kmh NNE 6.0 mph9.7 kmh 29.79 in1008.8 mb 0.34 in8.6 mm 0.00 in0.0 mm 3.54 in89.9 mm
02:51 PM 57.1°F13.9°C 56.2°F13.4°C 97% 3.1 mph NNW5.0 kmh NNW 8.8 mph14.2 kmh 29.78 in1008.5 mb 0.34 in8.6 mm 0.00 in0.0 mm 3.55 in90.2 mm
02:56 PM 57.2°F14.0°C 56.3°F13.5°C 97% 2.6 mph N4.2 kmh N 8.8 mph14.2 kmh 29.78 in1008.5 mb 0.33 in8.4 mm 0.00 in0.0 mm 3.57 in90.7 mm
03:01 PM 57.4°F14.1°C 56.5°F13.6°C 97% 2.3 mph N3.7 kmh N 7.5 mph12.1 kmh 29.78 in1008.5 mb 0.26 in6.6 mm 0.00 in0.0 mm 3.58 in90.9 mm
03:06 PM 57.4°F14.1°C 56.2°F13.4°C 96% 3.4 mph NNW5.5 kmh NNW 6.3 mph10.1 kmh 29.79 in1008.8 mb 0.20 in5.1 mm 0.00 in0.0 mm 3.59 in91.2 mm
03:11 PM 57.4°F14.1°C 56.2°F13.4°C 96% 3.4 mph N5.5 kmh N 6.3 mph10.1 kmh 29.79 in1008.8 mb 0.19 in4.8 mm 0.00 in0.0 mm 3.60 in91.4 mm
03:16 PM 57.4°F14.1°C 56.2°F13.4°C 96% 1.6 mph NNW2.6 kmh NNW 6.3 mph10.1 kmh 29.79 in1008.8 mb 0.18 in4.6 mm 0.00 in0.0 mm 3.61 in91.7 mm
03:21 PM 57.4°F14.1°C 56.2°F13.4°C 96% 3.0 mph N4.8 kmh N 6.3 mph10.1 kmh 29.78 in1008.5 mb 0.18 in4.6 mm 0.00 in0.0 mm 3.62 in91.9 mm
03:26 PM 57.4°F14.1°C 56.3°F13.5°C 96% 4.8 mph NNE7.7 kmh NNE 10.0 mph16.1 kmh 29.78 in1008.5 mb 0.18 in4.6 mm 0.00 in0.0 mm 3.63 in92.2 mm
03:31 PM 57.4°F14.1°C 56.2°F13.4°C 96% 3.1 mph N5.0 kmh N 10.0 mph16.1 kmh 29.78 in1008.5 mb 0.18 in4.6 mm 0.00 in0.0 mm 3.65 in92.7 mm
03:36 PM 57.4°F14.1°C 56.2°F13.4°C 96% 4.7 mph N7.6 kmh N 11.3 mph18.2 kmh 29.77 in1008.1 mb 0.17 in4.3 mm 0.00 in0.0 mm 3.66 in93.0 mm
03:41 PM 57.4°F14.1°C 56.2°F13.4°C 96% 4.7 mph N7.6 kmh N 15.0 mph24.1 kmh 29.77 in1008.1 mb 0.16 in4.1 mm 0.00 in0.0 mm 3.67 in93.2 mm
03:46 PM 57.5°F14.2°C 56.3°F13.5°C 96% 2.7 mph N4.3 kmh N 15.0 mph24.1 kmh 29.78 in1008.5 mb 0.14 in3.6 mm 0.00 in0.0 mm 3.67 in93.2 mm
03:51 PM 57.5°F14.2°C 56.3°F13.5°C 96% 1.7 mph NNE2.7 kmh NNE 11.0 mph17.7 kmh 29.78 in1008.5 mb 0.13 in3.3 mm 0.00 in0.0 mm 3.69 in93.7 mm
03:56 PM 57.6°F14.2°C 56.4°F13.6°C 96% 5.6 mph NNW9.0 kmh NNW 12.5 mph20.1 kmh 29.78 in1008.5 mb 0.13 in3.3 mm 0.00 in0.0 mm 3.70 in94.0 mm
04:01 PM 57.5°F14.2°C 56.0°F13.3°C 95% 2.3 mph N3.7 kmh N 12.5 mph20.1 kmh 29.78 in1008.5 mb 0.12 in3.0 mm 0.00 in0.0 mm 3.70 in94.0 mm
04:06 PM 57.5°F14.2°C 56.0°F13.3°C 95% 4.8 mph N7.7 kmh N 13.8 mph22.2 kmh 29.78 in1008.5 mb 0.12 in3.0 mm 0.00 in0.0 mm 3.71 in94.2 mm
04:11 PM 57.5°F14.2°C 56.0°F13.3°C 95% 2.7 mph N4.3 kmh N 13.8 mph22.2 kmh 29.78 in1008.5 mb 0.12 in3.0 mm 0.00 in0.0 mm 3.72 in94.5 mm
04:16 PM 57.5°F14.2°C 56.1°F13.4°C 95% 3.0 mph N4.8 kmh N 12.5 mph20.1 kmh 29.78 in1008.5 mb 0.12 in3.0 mm 0.00 in0.0 mm 3.73 in94.7 mm
04:21 PM 57.5°F14.2°C 56.1°F13.4°C 95% 3.6 mph N5.8 kmh N 12.5 mph20.1 kmh 29.78 in1008.5 mb 0.12 in3.0 mm 0.00 in0.0 mm 3.74 in95.0 mm
04:27 PM 57.4°F14.1°C 56.0°F13.3°C 95% 5.3 mph NNW8.5 kmh NNW 10.0 mph16.1 kmh 29.78 in1008.5 mb 0.09 in2.3 mm 0.00 in0.0 mm 3.74 in95.0 mm
04:32 PM 57.4°F14.1°C 56.0°F13.3°C 95% 5.2 mph NNW8.4 kmh NNW 11.3 mph18.2 kmh 29.78 in1008.5 mb 0.09 in2.3 mm 0.00 in0.0 mm 3.75 in95.3 mm
04:37 PM 57.5°F14.2°C 56.1°F13.4°C 95% 4.7 mph N7.6 kmh N 11.3 mph18.2 kmh 29.77 in1008.1 mb 0.08 in2.0 mm 0.00 in0.0 mm 3.75 in95.3 mm
04:42 PM 57.5°F14.2°C 56.1°F13.4°C 95% 3.7 mph N6.0 kmh N 10.0 mph16.1 kmh 29.77 in1008.1 mb 0.07 in1.8 mm 0.00 in0.0 mm 3.75 in95.3 mm
04:47 PM 57.4°F14.1°C 56.0°F13.3°C 95% 4.2 mph N6.8 kmh N 11.3 mph18.2 kmh 29.77 in1008.1 mb 0.07 in1.8 mm 0.00 in0.0 mm 3.75 in95.3 mm
04:52 PM 57.5°F14.2°C 56.1°F13.4°C 95% 2.9 mph ENE4.7 kmh ENE 11.3 mph18.2 kmh 29.77 in1008.1 mb 0.06 in1.5 mm 0.00 in0.0 mm 3.75 in95.3 mm
04:57 PM 57.4°F14.1°C 56.0°F13.3°C 95% 3.6 mph NNE5.8 kmh NNE 8.8 mph14.2 kmh 29.77 in1008.1 mb 0.06 in1.5 mm 0.00 in0.0 mm 3.76 in95.5 mm
05:02 PM 57.4°F14.1°C 56.0°F13.3°C 95% 3.8 mph N6.1 kmh N 8.8 mph14.2 kmh 29.78 in1008.5 mb 0.05 in1.3 mm 0.00 in0.0 mm 3.76 in95.5 mm
05:07 PM 57.4°F14.1°C 56.0°F13.3°C 95% 4.2 mph N6.8 kmh N 11.3 mph18.2 kmh 29.78 in1008.5 mb 0.06 in1.5 mm 0.12 in3.0 mm 3.77 in95.8 mm
05:12 PM 57.4°F14.1°C 56.0°F13.3°C 95% 5.0 mph N8.0 kmh N 11.3 mph18.2 kmh 29.77 in1008.1 mb 0.06 in1.5 mm 0.00 in0.0 mm 3.78 in96.0 mm
05:17 PM 57.6°F14.2°C 56.2°F13.4°C 95% 5.9 mph N9.5 kmh N 13.8 mph22.2 kmh 29.77 in1008.1 mb 0.05 in1.3 mm 0.00 in0.0 mm 3.78 in96.0 mm
05:22 PM 57.8°F14.3°C 56.1°F13.4°C 94% 6.6 mph N10.6 kmh N 18.8 mph30.3 kmh 29.77 in1008.1 mb 0.04 in1.0 mm 0.00 in0.0 mm 3.78 in96.0 mm
05:27 PM 57.8°F14.3°C 56.1°F13.4°C 94% 9.8 mph NNW15.8 kmh NNW 18.8 mph30.3 kmh 29.77 in1008.1 mb 0.04 in1.0 mm 0.00 in0.0 mm 3.78 in96.0 mm
05:32 PM 57.8°F14.3°C 56.1°F13.4°C 94% 7.5 mph 12.1 kmh 15.0 mph24.1 kmh 29.77 in1008.1 mb 0.03 in0.8 mm 0.00 in0.0 mm 3.78 in96.0 mm
05:37 PM 57.8°F14.3°C 56.0°F13.3°C 94% 3.7 mph NE6.0 kmh NE 13.8 mph22.2 kmh 29.77 in1008.1 mb 0.03 in0.8 mm 0.00 in0.0 mm 3.78 in96.0 mm
05:42 PM 57.8°F14.3°C 56.1°F13.4°C 94% 5.2 mph NNW8.4 kmh NNW 13.8 mph22.2 kmh 29.77 in1008.1 mb 0.03 in0.8 mm 0.00 in0.0 mm 3.78 in96.0 mm
05:47 PM 57.8°F14.3°C 56.1°F13.4°C 94% 5.2 mph N8.4 kmh N 22.5 mph36.2 kmh 29.78 in1008.5 mb 0.03 in0.8 mm 0.00 in0.0 mm 3.78 in96.0 mm
05:52 PM 57.7°F14.3°C 55.9°F13.3°C 94% 5.2 mph N8.4 kmh N 22.5 mph36.2 kmh 29.78 in1008.5 mb 0.03 in0.8 mm 0.00 in0.0 mm 3.78 in96.0 mm
05:57 PM 57.5°F14.2°C 55.5°F13.1°C 93% 5.7 mph N9.2 kmh N 16.0 mph25.7 kmh 29.78 in1008.5 mb 0.02 in0.5 mm 0.00 in0.0 mm 3.78 in96.0 mm
06:02 PM 57.5°F14.2°C 55.5°F13.1°C 93% 5.5 mph NW8.9 kmh NW 16.0 mph25.7 kmh 29.78 in1008.5 mb 0.02 in0.5 mm 0.00 in0.0 mm 3.78 in96.0 mm
06:07 PM 57.4°F14.1°C 55.6°F13.1°C 94% 4.8 mph N7.7 kmh N 12.5 mph20.1 kmh 29.77 in1008.1 mb 0.02 in0.5 mm 0.00 in0.0 mm 3.79 in96.3 mm
06:12 PM 57.4°F14.1°C 55.6°F13.1°C 94% 3.1 mph NNE5.0 kmh NNE 11.0 mph17.7 kmh 29.77 in1008.1 mb 0.01 in0.3 mm 0.00 in0.0 mm 3.79 in96.3 mm
06:17 PM 57.2°F14.0°C 55.2°F12.9°C 93% 6.0 mph NE9.7 kmh NE 13.8 mph22.2 kmh 29.78 in1008.5 mb 0.01 in0.3 mm 0.00 in0.0 mm 3.79 in96.3 mm
06:22 PM 57.1°F13.9°C 55.4°F13.0°C 94% 2.6 mph N4.2 kmh N 15.0 mph24.1 kmh 29.79 in1008.8 mb 0.01 in0.3 mm 0.00 in0.0 mm 3.79 in96.3 mm
06:27 PM 57.1°F13.9°C 55.4°F13.0°C 94% 2.6 mph NE4.2 kmh NE 15.0 mph24.1 kmh 29.79 in1008.8 mb 0.01 in0.3 mm 0.00 in0.0 mm 3.79 in96.3 mm
06:32 PM 57.2°F14.0°C 55.4°F13.0°C 94% 3.6 mph N5.8 kmh N 11.0 mph17.7 kmh 29.80 in1009.1 mb 0.01 in0.3 mm 0.00 in0.0 mm 3.79 in96.3 mm
06:37 PM 57.2°F14.0°C 55.2°F12.9°C 93% 5.7 mph 9.2 kmh 11.3 mph18.2 kmh 29.80 in1009.1 mb 0.01 in0.3 mm 0.00 in0.0 mm 3.79 in96.3 mm
06:42 PM 57.2°F14.0°C 55.4°F13.0°C 94% 4.9 mph N7.9 kmh N 11.3 mph18.2 kmh 29.79 in1008.8 mb 0.01 in0.3 mm 0.00 in0.0 mm 3.79 in96.3 mm
06:47 PM 57.1°F13.9°C 55.1°F12.8°C 93% 5.8 mph NNE9.3 kmh NNE 10.0 mph16.1 kmh 29.79 in1008.8 mb 0.01 in0.3 mm 0.00 in0.0 mm 3.79 in96.3 mm
06:52 PM 57.2°F14.0°C 55.2°F12.9°C 93% 2.7 mph NE4.3 kmh NE 10.0 mph16.1 kmh 29.79 in1008.8 mb 0.01 in0.3 mm 0.00 in0.0 mm 3.79 in96.3 mm
06:57 PM 57.1°F13.9°C 55.1°F12.8°C 93% 3.9 mph NNW6.3 kmh NNW 10.0 mph16.1 kmh 29.79 in1008.8 mb 0.01 in0.3 mm 0.00 in0.0 mm 3.79 in96.3 mm
07:02 PM 57.0°F13.9°C 55.0°F12.8°C 93% 4.8 mph NNW7.7 kmh NNW 8.8 mph14.2 kmh 29.79 in1008.8 mb 0.01 in0.3 mm 0.00 in0.0 mm 3.79 in96.3 mm
07:07 PM 56.9°F13.8°C 54.9°F12.7°C 93% 4.2 mph N6.8 kmh N 11.3 mph18.2 kmh 29.79 in1008.8 mb 0.00 in0.0 mm 0.00 in0.0 mm 3.79 in96.3 mm
07:12 PM 56.8°F13.8°C 54.8°F12.7°C 93% 3.6 mph NNE5.8 kmh NNE 11.3 mph18.2 kmh 29.79 in1008.8 mb 0.00 in0.0 mm 0.00 in0.0 mm 3.79 in96.3 mm
07:17 PM 56.7°F13.7°C 54.7°F12.6°C 93% 3.6 mph NNE5.8 kmh NNE 9.0 mph14.5 kmh 29.79 in1008.8 mb 0.00 in0.0 mm 0.00 in0.0 mm 3.79 in96.3 mm
07:22 PM 56.6°F13.7°C 54.9°F12.7°C 94% 3.0 mph NNW4.8 kmh NNW 10.0 mph16.1 kmh 29.79 in1008.8 mb 0.00 in0.0 mm 0.00 in0.0 mm 3.79 in96.3 mm
07:27 PM 56.5°F13.6°C 54.5°F12.5°C 93% 5.4 mph NNE8.7 kmh NNE 10.0 mph16.1 kmh 29.80 in1009.1 mb 0.00 in0.0 mm 0.00 in0.0 mm 3.79 in96.3 mm
07:32 PM 56.4°F13.6°C 54.4°F12.4°C 93% 3.0 mph N4.8 kmh N 10.0 mph16.1 kmh 29.80 in1009.1 mb 0.00 in0.0 mm 0.00 in0.0 mm 3.79 in96.3 mm
07:37 PM 56.3°F13.5°C 54.6°F12.6°C 94% 1.3 mph ENE2.1 kmh ENE 10.0 mph16.1 kmh 29.80 in1009.1 mb 0.00 in0.0 mm 0.00 in0.0 mm 3.79 in96.3 mm
07:42 PM 56.2°F13.4°C 54.5°F12.5°C 94% 2.0 mph N3.2 kmh N 8.0 mph12.9 kmh 29.80 in1009.1 mb 0.00 in0.0 mm 0.00 in0.0 mm 3.79 in96.3 mm
07:47 PM 56.0°F13.3°C 54.3°F12.4°C 94% 3.6 mph NE5.8 kmh NE 8.0 mph12.9 kmh 29.79 in1008.8 mb 0.00 in0.0 mm 0.00 in0.0 mm 3.79 in96.3 mm
07:52 PM 55.9°F13.3°C 54.2°F12.3°C 94% 2.4 mph NE3.9 kmh NE 7.5 mph12.1 kmh 29.80 in1009.1 mb 0.00 in0.0 mm 0.00 in0.0 mm 3.79 in96.3 mm
07:57 PM 55.9°F13.3°C 54.2°F12.3°C 94% 3.8 mph NE6.1 kmh NE 15.0 mph24.1 kmh 29.80 in1009.1 mb 0.00 in0.0 mm 0.00 in0.0 mm 3.79 in96.3 mm
08:02 PM 55.8°F13.2°C 54.1°F12.3°C 94% 2.5 mph NNE4.0 kmh NNE 15.0 mph24.1 kmh 29.80 in1009.1 mb 0.00 in0.0 mm 0.00 in0.0 mm 3.79 in96.3 mm
08:07 PM 55.7°F13.2°C 54.0°F12.2°C 94% 4.2 mph NE6.8 kmh NE 12.0 mph19.3 kmh 29.80 in1009.1 mb 0.00 in0.0 mm 0.00 in0.0 mm 3.79 in96.3 mm
08:12 PM 55.7°F13.2°C 54.0°F12.2°C 94% 2.8 mph ENE4.5 kmh ENE 10.0 mph16.1 kmh 29.80 in1009.1 mb 0.00 in0.0 mm 0.00 in0.0 mm 3.79 in96.3 mm
08:17 PM 55.7°F13.2°C 54.0°F12.2°C 94% 3.8 mph NNE6.1 kmh NNE 7.5 mph12.1 kmh 29.80 in1009.1 mb 0.00 in0.0 mm 0.00 in0.0 mm 3.79 in96.3 mm
08:22 PM 55.7°F13.2°C 54.0°F12.2°C 94% 2.5 mph NE4.0 kmh NE 7.5 mph12.1 kmh 29.80 in1009.1 mb 0.00 in0.0 mm 0.00 in0.0 mm 3.79 in96.3 mm
08:27 PM 55.6°F13.1°C 53.9°F12.2°C 94% 3.7 mph N6.0 kmh N 7.5 mph12.1 kmh 29.80 in1009.1 mb 0.00 in0.0 mm 0.00 in0.0 mm 3.79 in96.3 mm
08:32 PM 55.6°F13.1°C 53.9°F12.2°C 94% 6.1 mph NNW9.8 kmh NNW 12.5 mph20.1 kmh 29.80 in1009.1 mb 0.00 in0.0 mm 0.00 in0.0 mm 3.79 in96.3 mm
08:37 PM 55.6°F13.1°C 53.9°F12.2°C 94% 2.1 mph NNE3.4 kmh NNE 12.5 mph20.1 kmh 29.80 in1009.1 mb 0.00 in0.0 mm 0.00 in0.0 mm 3.79 in96.3 mm
08:42 PM 55.5°F13.1°C 53.8°F12.1°C 94% 3.5 mph N5.6 kmh N 10.0 mph16.1 kmh 29.80 in1009.1 mb 0.00 in0.0 mm 0.00 in0.0 mm 3.79 in96.3 mm
08:47 PM 55.5°F13.1°C 53.8°F12.1°C 94% 2.7 mph N4.3 kmh N 10.0 mph16.1 kmh 29.81 in1009.5 mb 0.00 in0.0 mm 0.00 in0.0 mm 3.79 in96.3 mm
08:52 PM 55.4°F13.0°C 53.7°F12.1°C 94% 3.0 mph NNW4.8 kmh NNW 7.5 mph12.1 kmh 29.81 in1009.5 mb 0.00 in0.0 mm 0.00 in0.0 mm 3.79 in96.3 mm
08:57 PM 55.4°F13.0°C 53.7°F12.1°C 94% 3.8 mph NE6.1 kmh NE 7.5 mph12.1 kmh 29.81 in1009.5 mb 0.00 in0.0 mm 0.00 in0.0 mm 3.79 in96.3 mm
09:02 PM 55.5°F13.1°C 53.8°F12.1°C 94% 2.1 mph NNE3.4 kmh NNE 7.5 mph12.1 kmh 29.82 in1009.8 mb 0.00 in0.0 mm 0.00 in0.0 mm 3.79 in96.3 mm
09:08 PM 55.4°F13.0°C 53.7°F12.1°C 94% 3.0 mph N4.8 kmh N 7.5 mph12.1 kmh 29.82 in1009.8 mb 0.00 in0.0 mm 0.00 in0.0 mm 3.79 in96.3 mm
09:13 PM 55.4°F13.0°C 53.7°F12.1°C 94% 3.7 mph N6.0 kmh N 8.8 mph14.2 kmh 29.82 in1009.8 mb 0.00 in0.0 mm 0.00 in0.0 mm 3.79 in96.3 mm
09:18 PM 55.4°F13.0°C 53.7°F12.1°C 94% 4.0 mph N6.4 kmh N 8.8 mph14.2 kmh 29.82 in1009.8 mb 0.00 in0.0 mm 0.00 in0.0 mm 3.79 in96.3 mm
09:23 PM 55.3°F12.9°C 53.6°F12.0°C 94% 3.5 mph N5.6 kmh N 7.0 mph11.3 kmh 29.82 in1009.8 mb 0.00 in0.0 mm 0.00 in0.0 mm 3.79 in96.3 mm
09:28 PM 55.3°F12.9°C 53.6°F12.0°C 94% 4.4 mph N7.1 kmh N 8.8 mph14.2 kmh 29.82 in1009.8 mb 0.00 in0.0 mm 0.00 in0.0 mm 3.79 in96.3 mm
09:33 PM 55.3°F12.9°C 53.6°F12.0°C 94% 3.6 mph N5.8 kmh N 8.8 mph14.2 kmh 29.82 in1009.8 mb 0.00 in0.0 mm 0.00 in0.0 mm 3.79 in96.3 mm
09:38 PM 55.3°F12.9°C 53.6°F12.0°C 94% 2.9 mph N4.7 kmh N 8.8 mph14.2 kmh 29.82 in1009.8 mb 0.00 in0.0 mm 0.00 in0.0 mm 3.79 in96.3 mm
09:43 PM 55.3°F12.9°C 53.6°F12.0°C 94% 2.2 mph NE3.5 kmh NE 8.0 mph12.9 kmh 29.83 in1010.2 mb 0.00 in0.0 mm 0.00 in0.0 mm 3.79 in96.3 mm
09:48 PM 55.3°F12.9°C 53.6°F12.0°C 94% 1.9 mph NE3.1 kmh NE 7.0 mph11.3 kmh 29.83 in1010.2 mb 0.00 in0.0 mm 0.00 in0.0 mm 3.79 in96.3 mm
09:53 PM 55.3°F12.9°C 53.6°F12.0°C 94% 2.9 mph N4.7 kmh N 10.0 mph16.1 kmh 29.82 in1009.8 mb 0.00 in0.0 mm 0.00 in0.0 mm 3.79 in96.3 mm
09:58 PM 55.3°F12.9°C 53.6°F12.0°C 94% 2.4 mph NW3.9 kmh NW 10.0 mph16.1 kmh 29.82 in1009.8 mb 0.00 in0.0 mm 0.00 in0.0 mm 3.79 in96.3 mm
10:03 PM 55.3°F12.9°C 53.6°F12.0°C 94% 2.7 mph NNW4.3 kmh NNW 10.0 mph16.1 kmh 29.83 in1010.2 mb 0.00 in0.0 mm 0.00 in0.0 mm 3.79 in96.3 mm
10:08 PM 55.2°F12.9°C 53.5°F11.9°C 94% 1.3 mph N2.1 kmh N 8.0 mph12.9 kmh 29.83 in1010.2 mb 0.00 in0.0 mm 0.00 in0.0 mm 3.79 in96.3 mm
10:13 PM 55.2°F12.9°C 53.5°F11.9°C 94% 1.5 mph NNW2.4 kmh NNW 6.0 mph9.7 kmh 29.83 in1010.2 mb 0.00 in0.0 mm 0.00 in0.0 mm 3.79 in96.3 mm
10:18 PM 55.1°F12.8°C 53.4°F11.9°C 94% 1.6 mph N2.6 kmh N 5.0 mph8.0 kmh 29.83 in1010.2 mb 0.00 in0.0 mm 0.00 in0.0 mm 3.79 in96.3 mm
10:23 PM 55.1°F12.8°C 53.4°F11.9°C 94% 1.4 mph N2.3 kmh N 3.8 mph6.1 kmh 29.83 in1010.2 mb 0.00 in0.0 mm 0.00 in0.0 mm 3.79 in96.3 mm
10:28 PM 55.1°F12.8°C 53.4°F11.9°C 94% 1.3 mph NNE2.1 kmh NNE 4.0 mph6.4 kmh 29.83 in1010.2 mb 0.00 in0.0 mm 0.00 in0.0 mm 3.79 in96.3 mm
10:33 PM 55.1°F12.8°C 53.4°F11.9°C 94% 1.3 mph ENE2.1 kmh ENE 4.0 mph6.4 kmh 29.83 in1010.2 mb 0.00 in0.0 mm 0.00 in0.0 mm 3.79 in96.3 mm
10:38 PM 55.1°F12.8°C 53.4°F11.9°C 94% 2.5 mph N4.0 kmh N 5.0 mph8.0 kmh 29.84 in1010.5 mb 0.00 in0.0 mm 0.00 in0.0 mm 3.79 in96.3 mm
10:43 PM 55.0°F12.8°C 53.3°F11.8°C 94% 2.6 mph NNE4.2 kmh NNE 5.0 mph8.0 kmh 29.83 in1010.2 mb 0.00 in0.0 mm 0.00 in0.0 mm 3.79 in96.3 mm
10:48 PM 55.0°F12.8°C 53.3°F11.8°C 94% 3.5 mph NNW5.6 kmh NNW 6.3 mph10.1 kmh 29.84 in1010.5 mb 0.00 in0.0 mm 0.00 in0.0 mm 3.79 in96.3 mm
10:53 PM 55.0°F12.8°C 53.3°F11.8°C 94% 2.5 mph NNW4.0 kmh NNW 6.3 mph10.1 kmh 29.84 in1010.5 mb 0.00 in0.0 mm 0.00 in0.0 mm 3.79 in96.3 mm
10:58 PM 55.0°F12.8°C 53.3°F11.8°C 94% 1.9 mph NE3.1 kmh NE 5.0 mph8.0 kmh 29.84 in1010.5 mb 0.00 in0.0 mm 0.00 in0.0 mm 3.79 in96.3 mm
11:03 PM 55.0°F12.8°C 53.3°F11.8°C 94% 2.1 mph N3.4 kmh N 5.0 mph8.0 kmh 29.83 in1010.2 mb 0.00 in0.0 mm 0.00 in0.0 mm 3.79 in96.3 mm
11:08 PM 54.9°F12.7°C 53.2°F11.8°C 94% 2.1 mph N3.4 kmh N 4.0 mph6.4 kmh 29.84 in1010.5 mb 0.00 in0.0 mm 0.00 in0.0 mm 3.79 in96.3 mm
11:13 PM 54.9°F12.7°C 53.2°F11.8°C 94% 2.6 mph NNW4.2 kmh NNW 5.0 mph8.0 kmh 29.83 in1010.2 mb 0.00 in0.0 mm 0.00 in0.0 mm 3.79 in96.3 mm
11:18 PM 54.9°F12.7°C 53.2°F11.8°C 94% 1.5 mph NNW2.4 kmh NNW 5.0 mph8.0 kmh 29.83 in1010.2 mb 0.00 in0.0 mm 0.00 in0.0 mm 3.79 in96.3 mm
11:23 PM 54.9°F12.7°C 53.2°F11.8°C 94% 3.3 mph NNW5.3 kmh NNW 5.0 mph8.0 kmh 29.83 in1010.2 mb 0.00 in0.0 mm 0.00 in0.0 mm 3.79 in96.3 mm
11:28 PM 54.8°F12.7°C 53.1°F11.7°C 94% 3.1 mph NW5.0 kmh NW 6.3 mph10.1 kmh 29.83 in1010.2 mb 0.00 in0.0 mm 0.00 in0.0 mm 3.79 in96.3 mm
11:33 PM 54.8°F12.7°C 53.1°F11.7°C 94% 1.8 mph NW2.9 kmh NW 6.3 mph10.1 kmh 29.83 in1010.2 mb 0.00 in0.0 mm 0.00 in0.0 mm 3.79 in96.3 mm
11:38 PM 54.8°F12.7°C 53.1°F11.7°C 94% 1.3 mph N2.1 kmh N 6.3 mph10.1 kmh 29.83 in1010.2 mb 0.00 in0.0 mm 0.00 in0.0 mm 3.79 in96.3 mm
11:43 PM 54.8°F12.7°C 53.1°F11.7°C 94% 2.7 mph NNE4.3 kmh NNE 5.0 mph8.0 kmh 29.83 in1010.2 mb 0.00 in0.0 mm 0.00 in0.0 mm 3.79 in96.3 mm
11:48 PM 54.7°F12.6°C 53.0°F11.7°C 94% 2.2 mph N3.5 kmh N 5.0 mph8.0 kmh 29.83 in1010.2 mb 0.00 in0.0 mm 0.00 in0.0 mm 3.79 in96.3 mm
11:53 PM 54.7°F12.6°C 53.0°F11.7°C 94% 1.7 mph 2.7 kmh 6.3 mph10.1 kmh 29.83 in1010.2 mb 0.00 in0.0 mm 0.00 in0.0 mm 3.79 in96.3 mm
11:58 PM 54.6°F12.6°C 52.9°F11.6°C 94% 3.1 mph NNE5.0 kmh NNE 6.3 mph10.1 kmh 29.83 in1010.2 mb 0.00 in0.0 mm 0.00 in0.0 mm 3.79 in96.3 mm